X  Close Metar Aviation Weather Data     LGRX Patras Araxos Agamemnon Airport
Temperature
3°C Temperature
3°C Dewpoint
100% Humidity



Wind
0 MPH
0 KM/H
0 M/S
0 KTS



Calm
N
Current Conditions

Clear Clear
Pressure 1021.92 (hPa) - 30.18 (inHg)
Visibility 6.2 (mile) - 10 (km)
Airport
Airport-code LGRX

Location: Patras Araxos Agamemnon Airport
Distance: 30 (mi)

Metar:
LGRX 022350Z 00000KT CAVOK 03/03 Q1022

Time: 03-02-2023 01:50 EET